createdAt,value
2023-05-06T00:01:49.458Z,2.20
2023-05-06T00:04:17.346Z,1.90
2023-05-06T00:06:45.105Z,3.00
2023-05-06T00:09:13.486Z,2.10
2023-05-06T00:11:41.481Z,2.40
2023-05-06T00:14:09.476Z,2.30
2023-05-06T00:16:37.323Z,2.30
2023-05-06T00:19:05.946Z,2.50
2023-05-06T00:21:33.897Z,2.60
2023-05-06T00:24:01.724Z,2.50
2023-05-06T00:26:29.449Z,2.60
2023-05-06T00:28:57.176Z,2.80
2023-05-06T00:31:25.050Z,2.20
2023-05-06T00:33:52.904Z,2.80
2023-05-06T00:36:20.656Z,2.40
2023-05-06T00:38:48.358Z,2.70
2023-05-06T00:41:16.345Z,2.10
2023-05-06T00:43:44.190Z,2.20
2023-05-06T00:46:15.496Z,2.70
2023-05-06T00:48:44.797Z,2.70
2023-05-06T00:51:12.880Z,2.80
2023-05-06T00:53:41.220Z,2.80
2023-05-06T00:56:09.276Z,2.50
2023-05-06T00:58:37.936Z,3.00
2023-05-06T01:01:05.807Z,2.10
2023-05-06T01:03:33.788Z,2.70
2023-05-06T01:06:09.097Z,2.90
2023-05-06T01:08:57.657Z,3.00
2023-05-06T01:11:53.013Z,2.30
2023-05-06T01:14:24.509Z,2.60
2023-05-06T01:17:00.231Z,2.60
2023-05-06T01:19:48.958Z,3.00
2023-05-06T01:22:17.109Z,3.20
2023-05-06T01:24:47.166Z,2.20
2023-05-06T01:29:46.256Z,2.70
2023-05-06T01:32:35.190Z,2.80
2023-05-06T01:35:22.619Z,2.90
2023-05-06T01:38:03.316Z,2.90
2023-05-06T01:40:33.296Z,3.00
2023-05-06T01:43:04.981Z,2.50
2023-05-06T01:45:35.782Z,2.30
2023-05-06T01:48:05.679Z,3.10
2023-05-06T01:50:34.803Z,2.50
2023-05-06T01:53:03.496Z,2.40
2023-05-06T01:55:32.287Z,2.60
2023-05-06T01:58:00.201Z,1.70
2023-05-06T02:00:28.341Z,2.70
2023-05-06T02:02:56.279Z,2.30
2023-05-06T02:05:24.311Z,2.60
2023-05-06T02:07:52.904Z,2.90
2023-05-06T02:10:20.980Z,2.40
2023-05-06T02:12:54.183Z,2.40
2023-05-06T02:15:22.032Z,2.20
2023-05-06T02:17:49.920Z,2.10
2023-05-06T02:20:17.692Z,2.70
2023-05-06T02:22:45.548Z,2.50
2023-05-06T02:25:13.370Z,2.10
2023-05-06T02:27:41.413Z,1.80
2023-05-06T02:30:09.535Z,2.20
2023-05-06T02:32:37.492Z,2.00
2023-05-06T02:35:06.242Z,2.10
2023-05-06T02:37:34.049Z,2.50
2023-05-06T02:40:02.774Z,2.90
2023-05-06T02:42:34.486Z,1.90
2023-05-06T02:45:02.681Z,2.20
2023-05-06T02:47:33.425Z,2.60
2023-05-06T02:50:01.365Z,1.90
2023-05-06T02:52:29.661Z,2.30
2023-05-06T02:54:57.337Z,2.30
2023-05-06T02:57:25.256Z,2.20
2023-05-06T02:59:53.025Z,1.80
2023-05-06T03:02:20.753Z,3.60
2023-05-06T03:04:48.489Z,2.20
2023-05-06T03:07:16.404Z,1.70
2023-05-06T03:09:44.831Z,2.00
2023-05-06T03:12:12.868Z,2.00
2023-05-06T03:14:40.826Z,2.40
2023-05-06T03:17:08.595Z,3.50
2023-05-06T03:19:36.959Z,2.20
2023-05-06T03:22:05.922Z,2.50
2023-05-06T03:24:34.261Z,1.90
2023-05-06T03:27:03.575Z,1.80
2023-05-06T03:29:31.653Z,2.20
2023-05-06T03:32:05.721Z,2.30
2023-05-06T03:34:37.873Z,2.60
2023-05-06T03:37:06.266Z,2.90
2023-05-06T03:39:34.606Z,2.80
2023-05-06T03:42:02.721Z,2.00
2023-05-06T03:44:32.610Z,2.30
2023-05-06T03:47:00.981Z,1.90
2023-05-06T03:49:29.886Z,2.00
2023-05-06T03:51:58.064Z,2.20
2023-05-06T03:54:26.258Z,2.20
2023-05-06T03:56:54.351Z,2.30
2023-05-06T03:59:22.257Z,1.70
2023-05-06T04:01:51.304Z,1.90
2023-05-06T04:04:19.598Z,2.20
2023-05-06T04:06:47.466Z,1.80
2023-05-06T04:09:15.606Z,1.80
2023-05-06T04:11:43.628Z,1.50
2023-05-06T04:14:12.592Z,1.90
2023-05-06T04:16:40.769Z,2.20
2023-05-06T04:19:09.289Z,2.00
2023-05-06T04:21:37.354Z,2.00
2023-05-06T04:24:08.508Z,1.40
2023-05-06T04:26:39.061Z,1.70
2023-05-06T04:29:08.123Z,2.10
2023-05-06T04:31:39.945Z,1.60
2023-05-06T04:34:11.119Z,1.70
2023-05-06T04:36:40.720Z,1.80
2023-05-06T04:39:36.936Z,1.90
2023-05-06T04:42:05.541Z,1.60
2023-05-06T04:44:39.188Z,1.80
2023-05-06T04:47:09.322Z,2.10
2023-05-06T04:49:37.662Z,1.50
2023-05-06T04:52:06.156Z,1.50
2023-05-06T04:54:34.478Z,1.80
2023-05-06T04:57:03.350Z,2.30
2023-05-06T04:59:32.410Z,1.80
2023-05-06T05:02:00.632Z,1.60
2023-05-06T05:04:28.598Z,1.80
2023-05-06T05:06:56.373Z,1.60
2023-05-06T05:09:24.474Z,1.60
2023-05-06T05:11:52.767Z,1.60
2023-05-06T05:14:21.558Z,2.00
2023-05-06T05:16:49.481Z,1.50
2023-05-06T05:19:18.978Z,1.60
2023-05-06T05:21:47.654Z,1.70
2023-05-06T05:24:16.673Z,1.80
2023-05-06T05:26:44.546Z,1.10
2023-05-06T05:29:12.656Z,1.80
2023-05-06T05:31:40.684Z,1.70
2023-05-06T05:34:08.606Z,1.80
2023-05-06T05:36:38.031Z,1.30
2023-05-06T05:39:09.288Z,1.80
2023-05-06T05:41:39.501Z,1.60
2023-05-06T05:44:07.506Z,1.50
2023-05-06T05:46:36.081Z,1.50
2023-05-06T05:49:04.356Z,1.30
2023-05-06T05:51:32.657Z,1.40
2023-05-06T05:54:01.859Z,1.70
2023-05-06T05:56:29.614Z,1.50
2023-05-06T05:58:57.687Z,1.50
2023-05-06T06:01:25.967Z,1.30
2023-05-06T06:03:55.042Z,1.40
2023-05-06T06:06:24.289Z,1.20
2023-05-06T06:08:52.685Z,1.60
2023-05-06T06:11:22.460Z,1.20
2023-05-06T06:13:50.758Z,1.70
2023-05-06T06:16:18.516Z,1.80
2023-05-06T06:18:46.318Z,1.60
2023-05-06T06:21:14.302Z,6.60
2023-05-06T06:23:42.387Z,3.40
2023-05-06T06:26:12.361Z,2.10
2023-05-06T06:28:40.392Z,2.90
2023-05-06T06:31:08.136Z,2.80
2023-05-06T06:33:36.277Z,1.60
2023-05-06T06:36:04.369Z,1.80
2023-05-06T06:38:32.181Z,1.50
2023-05-06T06:41:00.473Z,5.40
2023-05-06T06:43:28.236Z,2.10
2023-05-06T06:46:01.593Z,1.80
2023-05-06T06:48:29.537Z,1.80
2023-05-06T06:50:57.340Z,2.30
2023-05-06T06:53:25.164Z,1.70
2023-05-06T06:55:53.008Z,2.10
2023-05-06T06:58:20.751Z,1.50
2023-05-06T07:00:48.509Z,2.70
2023-05-06T07:03:19.522Z,6.40
2023-05-06T07:05:49.346Z,2.10
2023-05-06T07:08:17.260Z,3.90
2023-05-06T07:10:45.158Z,1.90
2023-05-06T07:13:12.956Z,2.50
2023-05-06T07:15:40.876Z,1.80
2023-05-06T07:18:09.698Z,1.40
2023-05-06T07:20:37.465Z,2.90
2023-05-06T07:23:05.364Z,2.10
2023-05-06T07:25:33.224Z,1.80
2023-05-06T07:28:01.023Z,4.60
2023-05-06T07:40:40.108Z,1.80
2023-05-06T07:43:08.446Z,2.50
2023-05-06T07:45:36.327Z,4.20
2023-05-06T07:48:04.892Z,5.40
2023-05-06T07:50:32.829Z,1.90
2023-05-06T07:53:00.701Z,1.60
2023-05-06T07:55:28.602Z,4.40
2023-05-06T07:57:56.435Z,2.40
2023-05-06T08:00:24.268Z,1.60
2023-05-06T08:02:52.065Z,1.30
2023-05-06T08:05:20.134Z,3.00
2023-05-06T08:07:47.889Z,2.90
2023-05-06T08:10:15.885Z,3.00
2023-05-06T08:12:43.734Z,1.60
2023-05-06T08:15:12.302Z,2.10
2023-05-06T08:17:40.638Z,1.10
2023-05-06T08:20:08.903Z,2.00
2023-05-06T08:22:36.784Z,3.20
2023-05-06T08:25:04.982Z,1.90
2023-05-06T08:27:32.821Z,2.80
2023-05-06T08:30:00.614Z,1.10
2023-05-06T08:32:28.458Z,1.60
2023-05-06T08:34:56.216Z,1.60
2023-05-06T08:37:23.950Z,2.80
2023-05-06T08:39:51.875Z,2.40
2023-05-06T08:42:21.631Z,2.40
2023-05-06T08:44:52.507Z,1.60
2023-05-06T08:47:20.991Z,1.80
2023-05-06T08:49:49.566Z,2.30
2023-05-06T08:52:18.247Z,1.30
2023-05-06T08:54:46.547Z,2.50
2023-05-06T08:57:14.554Z,5.50
2023-05-06T08:59:42.666Z,2.80
2023-05-06T09:02:11.543Z,1.60
2023-05-06T09:04:40.432Z,2.60
2023-05-06T09:07:08.361Z,1.80
2023-05-06T09:09:36.261Z,2.50
2023-05-06T09:12:08.401Z,5.20
2023-05-06T09:14:36.615Z,4.40
2023-05-06T09:17:46.979Z,6.40
2023-05-06T09:20:13.561Z,2.60
2023-05-06T09:22:40.825Z,4.10
2023-05-06T09:25:08.304Z,2.10
2023-05-06T09:27:36.114Z,1.60
2023-05-06T09:30:05.574Z,1.80
2023-05-06T09:34:59.808Z,1.90
2023-05-06T09:37:26.651Z,2.70
2023-05-06T09:39:55.215Z,1.40
2023-05-06T09:42:27.284Z,1.50
2023-05-06T09:44:56.217Z,1.80
2023-05-06T09:47:27.399Z,1.60
2023-05-06T09:49:58.624Z,2.00
2023-05-06T09:52:29.157Z,1.10
2023-05-06T09:54:56.886Z,2.90
2023-05-06T09:57:23.862Z,2.30
2023-05-06T09:59:53.668Z,3.30
2023-05-06T10:02:22.718Z,2.60
2023-05-06T10:04:50.027Z,2.60
2023-05-06T10:07:22.004Z,1.40
2023-05-06T10:09:50.879Z,2.50
2023-05-06T10:12:19.340Z,2.00
2023-05-06T10:14:46.593Z,1.70
2023-05-06T10:17:13.573Z,2.50
2023-05-06T10:19:46.181Z,2.40
2023-05-06T10:22:43.471Z,3.00
2023-05-06T10:25:18.621Z,2.30
2023-05-06T10:27:48.600Z,5.40
2023-05-06T10:30:16.457Z,4.30
2023-05-06T10:32:44.709Z,9.70
2023-05-06T10:35:45.838Z,5.30
2023-05-06T10:38:35.485Z,10.10
2023-05-06T10:41:03.201Z,3.40
2023-05-06T10:43:31.713Z,5.80
2023-05-06T10:46:15.767Z,4.50
2023-05-06T10:49:03.956Z,7.20
2023-05-06T10:51:31.159Z,5.50
2023-05-06T10:53:57.698Z,1.60
2023-05-06T10:56:24.919Z,2.00
2023-05-06T10:58:52.939Z,3.40
2023-05-06T11:01:26.787Z,1.70
2023-05-06T11:03:54.288Z,2.40
2023-05-06T11:06:36.261Z,3.00
2023-05-06T11:09:04.754Z,3.00
2023-05-06T11:11:47.611Z,3.20
2023-05-06T11:14:16.301Z,1.60
2023-05-06T11:16:49.602Z,1.50
2023-05-06T11:19:23.253Z,2.00
2023-05-06T11:21:50.934Z,1.20
2023-05-06T11:24:42.332Z,1.00
2023-05-06T11:27:10.409Z,1.30
2023-05-06T11:29:37.337Z,1.60
2023-05-06T11:32:07.832Z,5.90
2023-05-06T11:34:36.290Z,15.30
2023-05-06T11:37:05.625Z,8.90
2023-05-06T11:39:39.655Z,8.30
2023-05-06T11:42:08.402Z,16.60
2023-05-06T11:44:37.199Z,14.00
2023-05-06T11:47:06.053Z,8.30
2023-05-06T11:49:41.428Z,3.40
2023-05-06T11:52:12.166Z,3.10
2023-05-06T11:54:40.519Z,11.50
2023-05-06T11:57:07.938Z,2.90
2023-05-06T11:59:39.656Z,2.60
2023-05-06T12:02:10.004Z,2.10
2023-05-06T12:04:41.857Z,2.00
2023-05-06T12:07:10.311Z,11.00
2023-05-06T12:09:38.767Z,7.90
2023-05-06T12:12:06.410Z,4.20
2023-05-06T12:14:33.428Z,6.30
2023-05-06T12:17:00.162Z,7.20
2023-05-06T12:19:28.123Z,5.60
2023-05-06T12:21:55.043Z,7.60
2023-05-06T12:24:30.689Z,11.20
2023-05-06T12:29:23.411Z,8.90
2023-05-06T12:32:08.556Z,10.20
2023-05-06T12:34:37.609Z,12.40
2023-05-06T12:37:05.288Z,7.90
2023-05-06T12:39:36.322Z,7.30
2023-05-06T12:42:03.285Z,5.80
2023-05-06T12:44:33.972Z,6.00
2023-05-06T12:47:01.978Z,6.10
2023-05-06T12:49:46.867Z,4.40
2023-05-06T12:52:14.001Z,5.20
2023-05-06T12:54:41.109Z,3.70
2023-05-06T12:57:07.743Z,6.10
2023-05-06T12:59:35.742Z,4.20
2023-05-06T13:02:03.617Z,3.60
2023-05-06T13:04:30.668Z,4.30
2023-05-06T13:06:57.950Z,2.50
2023-05-06T13:09:24.872Z,3.30
2023-05-06T13:11:51.276Z,2.80
2023-05-06T13:14:17.633Z,5.60
2023-05-06T13:16:44.816Z,2.40
2023-05-06T13:19:21.205Z,11.00
2023-05-06T13:21:58.119Z,9.70
2023-05-06T13:24:24.600Z,7.50
2023-05-06T13:26:51.297Z,6.30
2023-05-06T13:29:18.351Z,8.00
2023-05-06T13:31:44.845Z,6.70
2023-05-06T13:34:11.315Z,6.50
2023-05-06T13:36:38.222Z,5.60
2023-05-06T13:39:04.732Z,7.70
2023-05-06T13:41:32.028Z,4.80
2023-05-06T13:43:58.466Z,6.80
2023-05-06T13:46:26.602Z,3.00
2023-05-06T13:48:53.146Z,3.20
2023-05-06T13:51:19.565Z,3.60
2023-05-06T13:53:45.936Z,2.40
2023-05-06T13:56:12.242Z,3.70
2023-05-06T13:58:38.922Z,1.90
2023-05-06T14:01:05.531Z,3.10
2023-05-06T14:03:31.909Z,2.30
2023-05-06T14:05:58.418Z,2.90
2023-05-06T14:08:25.026Z,4.30
2023-05-06T14:10:51.372Z,3.70
2023-05-06T14:13:17.857Z,3.90
2023-05-06T14:15:44.428Z,3.20
2023-05-06T14:18:11.204Z,3.00
2023-05-06T14:20:37.636Z,3.40
2023-05-06T14:23:05.417Z,4.00
2023-05-06T14:25:32.433Z,3.10
2023-05-06T14:27:58.915Z,4.30
2023-05-06T14:30:25.476Z,3.30
2023-05-06T14:32:51.968Z,4.00
2023-05-06T14:35:18.373Z,4.30
2023-05-06T14:37:44.817Z,4.90
2023-05-06T14:40:11.896Z,5.40
2023-05-06T14:42:38.234Z,3.30
2023-05-06T14:45:05.537Z,4.50
2023-05-06T14:47:32.061Z,2.50
2023-05-06T14:49:58.475Z,2.90
2023-05-06T14:52:24.972Z,2.80
2023-05-06T14:54:52.043Z,3.10
2023-05-06T14:57:18.544Z,2.20
2023-05-06T14:59:45.449Z,2.70
2023-05-06T15:02:12.117Z,2.50
2023-05-06T15:04:38.667Z,3.10
2023-05-06T15:07:05.269Z,2.20
2023-05-06T15:09:31.937Z,2.80
2023-05-06T15:11:58.386Z,2.40
2023-05-06T15:14:25.141Z,3.70
2023-05-06T15:16:55.307Z,6.60
2023-05-06T15:19:22.191Z,3.70
2023-05-06T15:21:48.643Z,3.90
2023-05-06T15:24:15.110Z,3.80
2023-05-06T15:26:41.501Z,17.10
2023-05-06T15:29:08.100Z,6.20
2023-05-06T15:31:38.350Z,7.40
2023-05-06T15:34:10.384Z,9.60
2023-05-06T15:36:38.330Z,9.80
2023-05-06T15:39:05.225Z,5.00
2023-05-06T15:41:33.763Z,4.00
2023-05-06T15:44:02.577Z,5.20
2023-05-06T15:46:31.354Z,4.40
2023-05-06T15:49:21.152Z,5.50
2023-05-06T15:51:44.633Z,9.30
2023-05-06T15:54:11.009Z,13.60
2023-05-06T15:56:40.977Z,7.20
2023-05-06T15:59:08.335Z,6.30
2023-05-06T16:02:19.023Z,8.20
2023-05-06T16:04:23.698Z,13.90
2023-05-06T16:06:50.470Z,9.60
2023-05-06T16:09:16.918Z,18.10
2023-05-06T16:11:43.489Z,10.10
2023-05-06T16:14:09.960Z,12.10
2023-05-06T16:16:36.657Z,9.60
2023-05-06T16:19:03.962Z,14.50
2023-05-06T16:21:31.152Z,11.80
2023-05-06T16:23:57.887Z,7.70
2023-05-06T16:26:24.401Z,10.20
2023-05-06T16:28:51.407Z,12.30
2023-05-06T16:31:18.030Z,8.20
2023-05-06T16:33:44.543Z,6.20
2023-05-06T16:36:12.267Z,7.10
2023-05-06T16:38:38.988Z,8.30
2023-05-06T16:41:05.372Z,8.60
2023-05-06T16:43:32.394Z,7.30
2023-05-06T16:45:59.311Z,6.80
2023-05-06T16:48:27.519Z,6.80
2023-05-06T16:50:55.220Z,10.10
2023-05-06T16:53:22.484Z,9.10
2023-05-06T16:55:49.408Z,6.00
2023-05-06T16:58:18.058Z,8.90
2023-05-06T17:00:44.724Z,9.90
2023-05-06T17:03:11.150Z,6.60
2023-05-06T17:05:39.152Z,7.70
2023-05-06T17:08:06.905Z,8.50
2023-05-06T17:10:36.326Z,8.30
2023-05-06T17:13:04.470Z,6.80
2023-05-06T17:15:31.136Z,6.80
2023-05-06T17:17:57.542Z,5.80
2023-05-06T17:20:24.571Z,6.10
2023-05-06T17:22:50.980Z,8.00
2023-05-06T17:25:17.482Z,8.60
2023-05-06T17:27:44.575Z,21.90
2023-05-06T17:30:12.395Z,12.30
2023-05-06T17:32:41.709Z,11.10
2023-05-06T17:35:10.107Z,6.20
2023-05-06T17:37:37.001Z,4.40
2023-05-06T17:40:05.222Z,4.60
2023-05-06T17:42:33.741Z,8.00
2023-05-06T17:45:00.943Z,5.70
2023-05-06T17:47:29.357Z,5.00
2023-05-06T17:49:56.564Z,4.90
2023-05-06T17:52:25.721Z,4.40
2023-05-06T17:55:10.765Z,5.40
2023-05-06T17:57:39.640Z,3.40
2023-05-06T18:00:06.874Z,5.20
2023-05-06T18:02:38.529Z,5.40
2023-05-06T18:05:06.221Z,3.60
2023-05-06T18:07:35.103Z,4.50
2023-05-06T18:10:01.548Z,4.50
2023-05-06T18:12:27.997Z,3.90
2023-05-06T18:14:56.262Z,3.60
2023-05-06T18:17:23.680Z,3.20
2023-05-06T18:19:50.205Z,3.10
2023-05-06T18:22:16.571Z,3.80
2023-05-06T18:24:42.918Z,3.60
2023-05-06T18:27:09.398Z,3.70
2023-05-06T18:29:35.782Z,3.70
2023-05-06T18:32:02.370Z,4.80
2023-05-06T18:34:28.914Z,12.20
2023-05-06T18:36:57.189Z,16.50
2023-05-06T18:39:23.848Z,5.70
2023-05-06T18:41:50.192Z,12.10
2023-05-06T18:44:16.519Z,8.00
2023-05-06T18:46:42.851Z,11.40
2023-05-06T18:49:09.219Z,10.70
2023-05-06T18:51:36.288Z,19.20
2023-05-06T18:54:02.791Z,8.50
2023-05-06T18:56:29.247Z,6.60
2023-05-06T18:58:55.872Z,16.20
2023-05-06T19:01:22.467Z,11.80
2023-05-06T19:03:49.021Z,8.80
2023-05-06T19:06:15.578Z,9.20
2023-05-06T19:08:41.992Z,6.20
2023-05-06T19:11:15.389Z,7.00
2023-05-06T19:13:43.082Z,3.90
2023-05-06T19:16:09.532Z,6.30
2023-05-06T19:18:36.026Z,5.00
2023-05-06T19:21:02.373Z,5.00
2023-05-06T19:23:28.725Z,6.20
2023-05-06T19:25:55.154Z,3.40
2023-05-06T19:28:21.552Z,5.30
2023-05-06T19:30:48.087Z,4.00
2023-05-06T19:33:15.661Z,3.70
2023-05-06T19:35:41.993Z,3.80
2023-05-06T19:38:08.742Z,3.20
2023-05-06T19:40:35.332Z,3.30
2023-05-06T19:43:03.271Z,3.30
2023-05-06T19:45:31.859Z,3.70
2023-05-06T19:47:59.234Z,4.90
2023-05-06T19:50:30.980Z,4.30
2023-05-06T19:52:57.361Z,4.00
2023-05-06T19:55:24.022Z,4.60
2023-05-06T19:57:50.519Z,4.30
2023-05-06T20:00:19.424Z,4.60
2023-05-06T20:02:46.138Z,4.40
2023-05-06T20:05:13.309Z,6.60
2023-05-06T20:07:40.604Z,6.50
2023-05-06T20:10:09.347Z,6.20
2023-05-06T20:12:35.768Z,7.30
2023-05-06T20:15:03.198Z,7.50
2023-05-06T20:17:29.677Z,9.60
2023-05-06T20:19:59.028Z,9.50
2023-05-06T20:22:25.770Z,7.60
2023-05-06T20:24:52.535Z,6.40
2023-05-06T20:27:22.314Z,8.10
2023-05-06T20:29:50.860Z,9.60
2023-05-06T20:32:17.208Z,8.20
2023-05-06T20:34:43.558Z,5.80
2023-05-06T20:37:09.948Z,8.00
2023-05-06T20:39:36.344Z,8.00
2023-05-06T20:42:02.848Z,4.60
2023-05-06T20:44:29.206Z,5.20
2023-05-06T20:46:55.569Z,4.60
2023-05-06T20:49:22.304Z,6.40
2023-05-06T20:51:48.665Z,6.00
2023-05-06T20:54:15.060Z,4.10
2023-05-06T20:56:42.326Z,4.80
2023-05-06T20:59:08.744Z,5.60
2023-05-06T21:01:35.348Z,4.40
2023-05-06T21:04:04.019Z,3.50
2023-05-06T21:06:31.441Z,2.50
2023-05-06T21:08:57.913Z,5.30
2023-05-06T21:11:25.102Z,4.20
2023-05-06T21:13:51.431Z,3.70
2023-05-06T21:16:17.983Z,5.00
2023-05-06T21:18:44.505Z,4.40
2023-05-06T21:21:10.897Z,3.70
2023-05-06T21:23:37.559Z,5.90
2023-05-06T21:26:03.998Z,3.00
2023-05-06T21:28:30.411Z,4.20
2023-05-06T21:30:56.848Z,3.30
2023-05-06T21:33:23.178Z,3.50
2023-05-06T21:35:49.632Z,3.00
2023-05-06T21:38:15.945Z,3.60
2023-05-06T21:40:42.286Z,3.10
2023-05-06T21:43:08.632Z,3.50
2023-05-06T21:45:35.699Z,3.60
2023-05-06T21:48:02.172Z,3.60
2023-05-06T21:50:28.666Z,2.70
2023-05-06T21:52:55.187Z,2.80
2023-05-06T21:55:21.852Z,3.30
2023-05-06T21:57:48.743Z,2.70
2023-05-06T22:00:15.434Z,3.00
2023-05-06T22:02:42.058Z,2.50
2023-05-06T22:05:09.041Z,2.50
2023-05-06T22:07:35.944Z,2.50
2023-05-06T22:10:03.685Z,2.80
2023-05-06T22:12:30.848Z,3.00
2023-05-06T22:14:57.188Z,2.80
2023-05-06T22:17:23.591Z,2.40
2023-05-06T22:19:50.923Z,3.20
2023-05-06T22:22:17.760Z,3.10
2023-05-06T22:24:44.218Z,3.00
2023-05-06T22:27:10.749Z,2.40
2023-05-06T22:29:37.100Z,2.70
2023-05-06T22:32:03.769Z,2.30
2023-05-06T22:34:30.285Z,2.30
2023-05-06T22:36:58.225Z,2.20
2023-05-06T22:42:32.178Z,2.50
2023-05-06T22:44:59.918Z,2.90
2023-05-06T22:47:27.759Z,2.70
2023-05-06T22:49:55.601Z,2.10
2023-05-06T22:52:25.392Z,2.30
2023-05-06T22:54:54.093Z,2.00
2023-05-06T22:57:25.365Z,2.50
2023-05-06T22:59:53.195Z,2.90
2023-05-06T23:02:21.290Z,2.20
2023-05-06T23:04:49.133Z,3.30
2023-05-06T23:07:16.884Z,2.20
2023-05-06T23:09:44.644Z,2.90
2023-05-06T23:12:12.598Z,2.90
2023-05-06T23:14:40.449Z,2.50
2023-05-06T23:17:08.277Z,2.50
2023-05-06T23:19:36.319Z,2.10
2023-05-06T23:22:04.556Z,3.10
2023-05-06T23:24:32.288Z,2.50
2023-05-06T23:27:00.021Z,2.80
2023-05-06T23:29:27.808Z,2.80
2023-05-06T23:31:55.808Z,2.90
2023-05-06T23:34:23.610Z,2.60
2023-05-06T23:36:51.479Z,2.30
2023-05-06T23:39:19.288Z,1.90
2023-05-06T23:41:47.056Z,2.10
2023-05-06T23:44:14.914Z,2.90
2023-05-06T23:46:42.658Z,2.20
2023-05-06T23:49:10.643Z,2.80
2023-05-06T23:51:38.337Z,2.10
2023-05-06T23:54:06.159Z,2.30
2023-05-06T23:56:35.202Z,2.10
2023-05-06T23:59:02.986Z,2.00
